Pincourt, Canada
Current Conditions -  °F | °C
As of 10:00 AM on Monday 24 Nov 2014 (Local Time) from CYUL Reporting Station
Overcast Overcast  
Wind Chill: 52°   Ceiling: 4200
Heat Index: 52°   Visibility: 12mi
Dew Point: 48°   Wind: 21mph
Humidity: 88%   Direction: 150°SSE
Pressure: 29.4"   Gusts: 28mph
Location:  45.37°N, 73.98°W
Report Text: CYUL 241500Z 15018G24KT 12SM FEW013 BKN042 OVC080 11/09 A2940 RMK SF1SC7AC1 SF TR SLP955 DENSITY ALT 200FT
Loading
Personal Weather Stations






























Interactive Weather Map New forecast layout! Learn more

10-Day Weather Forecast

Advertisements
Track Severe Weather on mobile